sensor_id;sensor_type;location;lat;lon;timestamp;pressure;altitude;pressure_sealevel;temperature;humidity
78592;BME280;67889;48.352;11.392;2023-02-17T00:00:58;97113.69;;;5.19;67.12
78592;BME280;67889;48.352;11.392;2023-02-17T00:03:24;97105.94;;;5.18;66.88
78592;BME280;67889;48.352;11.392;2023-02-17T00:05:50;97120.31;;;5.31;66.74
78592;BME280;67889;48.352;11.392;2023-02-17T00:08:15;97130.03;;;5.44;67.21
78592;BME280;67889;48.352;11.392;2023-02-17T00:10:41;97108.13;;;5.45;66.04
78592;BME280;67889;48.352;11.392;2023-02-17T00:13:06;97118.63;;;5.59;65.74
78592;BME280;67889;48.352;11.392;2023-02-17T00:15:31;97120.66;;;5.62;65.70
78592;BME280;67889;48.352;11.392;2023-02-17T00:17:57;97101.66;;;5.59;65.70
78592;BME280;67889;48.352;11.392;2023-02-17T00:20:22;97107.16;;;5.62;65.73
78592;BME280;67889;48.352;11.392;2023-02-17T00:22:47;97104.47;;;5.62;65.81
78592;BME280;67889;48.352;11.392;2023-02-17T00:25:12;97081.69;;;5.39;66.21
78592;BME280;67889;48.352;11.392;2023-02-17T00:27:38;97113.56;;;5.58;66.51
78592;BME280;67889;48.352;11.392;2023-02-17T00:30:03;97082.00;;;5.37;66.41
78592;BME280;67889;48.352;11.392;2023-02-17T00:32:29;97066.72;;;5.29;66.89
78592;BME280;67889;48.352;11.392;2023-02-17T00:34:54;97115.00;;;5.55;66.10
78592;BME280;67889;48.352;11.392;2023-02-17T00:37:22;97084.13;;;5.32;65.73
78592;BME280;67889;48.352;11.392;2023-02-17T00:39:47;97084.91;;;5.32;65.58
78592;BME280;67889;48.352;11.392;2023-02-17T00:42:13;97121.06;;;5.52;65.45
78592;BME280;67889;48.352;11.392;2023-02-17T00:44:38;97061.22;;;5.17;65.75
78592;BME280;67889;48.352;11.392;2023-02-17T00:47:04;97076.56;;;5.25;66.54
78592;BME280;67889;48.352;11.392;2023-02-17T00:49:29;97047.38;;;5.06;66.25
78592;BME280;67889;48.352;11.392;2023-02-17T00:51:58;97105.41;;;5.45;66.58
78592;BME280;67889;48.352;11.392;2023-02-17T00:54:25;97060.84;;;5.27;65.70
78592;BME280;67889;48.352;11.392;2023-02-17T00:56:50;97063.34;;;5.32;65.57
78592;BME280;67889;48.352;11.392;2023-02-17T00:59:15;97117.19;;;5.74;64.74
78592;BME280;67889;48.352;11.392;2023-02-17T01:01:41;97068.00;;;5.44;65.03
78592;BME280;67889;48.352;11.392;2023-02-17T01:04:06;97110.34;;;5.76;64.94
78592;BME280;67889;48.352;11.392;2023-02-17T01:06:34;97035.47;;;5.28;64.44
78592;BME280;67889;48.352;11.392;2023-02-17T01:09:02;97060.03;;;5.47;64.65
78592;BME280;67889;48.352;11.392;2023-02-17T01:11:29;97075.78;;;5.58;64.49
78592;BME280;67889;48.352;11.392;2023-02-17T01:13:55;97039.09;;;5.32;64.61
78592;BME280;67889;48.352;11.392;2023-02-17T01:16:29;97114.53;;;5.86;64.83
78592;BME280;67889;48.352;11.392;2023-02-17T01:18:57;97119.59;;;5.88;64.70
78592;BME280;67889;48.352;11.392;2023-02-17T01:21:25;97071.84;;;5.55;64.72
78592;BME280;67889;48.352;11.392;2023-02-17T01:23:53;97078.16;;;5.59;64.72
78592;BME280;67889;48.352;11.392;2023-02-17T01:26:21;97064.53;;;5.56;65.45
78592;BME280;67889;48.352;11.392;2023-02-17T01:28:47;97116.78;;;5.84;66.32
78592;BME280;67889;48.352;11.392;2023-02-17T01:31:12;97123.84;;;5.76;66.73
78592;BME280;67889;48.352;11.392;2023-02-17T01:33:39;97046.91;;;5.25;67.40
78592;BME280;67889;48.352;11.392;2023-02-17T01:36:06;97074.19;;;5.44;67.45
78592;BME280;67889;48.352;11.392;2023-02-17T01:38:32;97123.38;;;5.74;67.96
78592;BME280;67889;48.352;11.392;2023-02-17T01:40:57;97060.97;;;5.31;68.22
78592;BME280;67889;48.352;11.392;2023-02-17T01:43:23;97042.53;;;5.21;68.49
78592;BME280;67889;48.352;11.392;2023-02-17T01:45:51;97049.75;;;5.29;68.81
78592;BME280;67889;48.352;11.392;2023-02-17T01:48:20;97036.84;;;5.13;68.52
78592;BME280;67889;48.352;11.392;2023-02-17T01:50:57;97123.97;;;5.80;67.76
78592;BME280;67889;48.352;11.392;2023-02-17T01:53:37;97116.88;;;5.75;68.56
78592;BME280;67889;48.352;11.392;2023-02-17T01:56:05;97045.13;;;5.29;67.66
78592;BME280;67889;48.352;11.392;2023-02-17T01:58:31;97089.06;;;5.63;68.04
78592;BME280;67889;48.352;11.392;2023-02-17T02:00:59;97059.03;;;5.52;67.29
78592;BME280;67889;48.352;11.392;2023-02-17T02:03:25;97094.28;;;5.80;68.00
78592;BME280;67889;48.352;11.392;2023-02-17T02:05:51;97089.56;;;5.77;68.59
78592;BME280;67889;48.352;11.392;2023-02-17T02:08:16;97075.69;;;5.66;68.77
78592;BME280;67889;48.352;11.392;2023-02-17T02:10:41;97065.69;;;5.67;68.86
78592;BME280;67889;48.352;11.392;2023-02-17T02:13:07;97089.47;;;5.86;67.74
78592;BME280;67889;48.352;11.392;2023-02-17T02:15:38;97076.56;;;5.91;65.79
78592;BME280;67889;48.352;11.392;2023-02-17T02:18:30;97090.78;;;6.25;64.24
78592;BME280;67889;48.352;11.392;2023-02-17T02:24:33;97079.41;;;6.31;64.30
78592;BME280;67889;48.352;11.392;2023-02-17T02:29:39;97071.53;;;6.38;63.85
78592;BME280;67889;48.352;11.392;2023-02-17T02:32:35;97072.00;;;6.40;63.63
78592;BME280;67889;48.352;11.392;2023-02-17T02:38:05;97055.56;;;6.45;64.13
78592;BME280;67889;48.352;11.392;2023-02-17T02:40:33;97052.00;;;6.82;62.78
78592;BME280;67889;48.352;11.392;2023-02-17T02:43:01;97046.34;;;6.99;62.39
78592;BME280;67889;48.352;11.392;2023-02-17T02:45:28;97052.59;;;7.15;61.37
78592;BME280;67889;48.352;11.392;2023-02-17T02:47:57;97030.00;;;6.95;61.83
78592;BME280;67889;48.352;11.392;2023-02-17T02:56:12;97037.34;;;7.51;59.49
78592;BME280;67889;48.352;11.392;2023-02-17T02:59:17;97027.56;;;7.46;59.11
78592;BME280;67889;48.352;11.392;2023-02-17T03:02:03;97023.34;;;7.33;59.71
78592;BME280;67889;48.352;11.392;2023-02-17T03:04:35;97020.53;;;7.29;59.48
78592;BME280;67889;48.352;11.392;2023-02-17T03:07:03;97028.19;;;7.27;59.85
78592;BME280;67889;48.352;11.392;2023-02-17T03:09:30;97024.97;;;7.22;60.13
78592;BME280;67889;48.352;11.392;2023-02-17T03:11:56;97025.59;;;7.31;59.48
78592;BME280;67889;48.352;11.392;2023-02-17T03:14:23;97008.91;;;7.29;60.03
78592;BME280;67889;48.352;11.392;2023-02-17T03:16:49;97026.47;;;7.35;60.46
78592;BME280;67889;48.352;11.392;2023-02-17T03:19:17;97009.22;;;7.39;59.57
78592;BME280;67889;48.352;11.392;2023-02-17T03:24:32;97023.28;;;7.61;59.19
78592;BME280;67889;48.352;11.392;2023-02-17T03:26:57;97007.91;;;7.49;58.45
78592;BME280;67889;48.352;11.392;2023-02-17T03:29:23;97016.22;;;7.72;57.23
78592;BME280;67889;48.352;11.392;2023-02-17T03:31:48;97023.41;;;7.80;56.86
78592;BME280;67889;48.352;11.392;2023-02-17T03:34:13;97019.66;;;7.85;56.02
78592;BME280;67889;48.352;11.392;2023-02-17T03:36:38;97017.91;;;7.92;55.58
78592;BME280;67889;48.352;11.392;2023-02-17T03:39:04;97019.13;;;7.95;55.96
78592;BME280;67889;48.352;11.392;2023-02-17T03:41:29;97015.81;;;7.86;56.18
78592;BME280;67889;48.352;11.392;2023-02-17T03:43:54;97002.97;;;7.83;55.31
78592;BME280;67889;48.352;11.392;2023-02-17T03:46:20;96969.34;;;7.52;56.52
78592;BME280;67889;48.352;11.392;2023-02-17T03:48:45;96926.38;;;7.35;56.12
78592;BME280;67889;48.352;11.392;2023-02-17T03:51:19;96949.69;;;7.55;56.33
78592;BME280;67889;48.352;11.392;2023-02-17T03:53:45;96942.00;;;7.41;56.40
78592;BME280;67889;48.352;11.392;2023-02-17T03:56:11;96960.63;;;7.59;56.01
78592;BME280;67889;48.352;11.392;2023-02-17T03:58:37;96936.34;;;7.47;54.93
78592;BME280;67889;48.352;11.392;2023-02-17T04:01:03;96955.81;;;7.52;55.38
78592;BME280;67889;48.352;11.392;2023-02-17T04:03:29;96939.31;;;7.41;55.19
78592;BME280;67889;48.352;11.392;2023-02-17T04:05:54;96926.03;;;7.21;55.66
78592;BME280;67889;48.352;11.392;2023-02-17T04:08:20;96989.16;;;7.56;56.12
78592;BME280;67889;48.352;11.392;2023-02-17T04:10:50;96991.97;;;7.60;56.52
78592;BME280;67889;48.352;11.392;2023-02-17T04:13:15;96945.31;;;7.35;55.55
78592;BME280;67889;48.352;11.392;2023-02-17T04:15:41;96945.16;;;7.59;54.39
78592;BME280;67889;48.352;11.392;2023-02-17T04:18:06;96945.84;;;7.40;55.01
78592;BME280;67889;48.352;11.392;2023-02-17T04:20:31;96970.13;;;7.53;55.08
78592;BME280;67889;48.352;11.392;2023-02-17T04:22:57;96938.00;;;7.51;53.96
78592;BME280;67889;48.352;11.392;2023-02-17T04:25:22;96946.91;;;7.67;53.61
78592;BME280;67889;48.352;11.392;2023-02-17T04:27:47;96982.84;;;8.15;52.20
78592;BME280;67889;48.352;11.392;2023-02-17T04:30:13;96929.34;;;7.93;52.54
78592;BME280;67889;48.352;11.392;2023-02-17T04:32:38;96934.16;;;7.84;52.66
78592;BME280;67889;48.352;11.392;2023-02-17T04:35:04;96928.13;;;7.74;52.38
78592;BME280;67889;48.352;11.392;2023-02-17T04:37:29;96941.31;;;7.92;52.33
78592;BME280;67889;48.352;11.392;2023-02-17T04:39:55;96943.13;;;8.03;51.82
78592;BME280;67889;48.352;11.392;2023-02-17T04:42:20;96979.09;;;8.35;52.32
78592;BME280;67889;48.352;11.392;2023-02-17T04:44:45;96911.56;;;8.11;50.85
78592;BME280;67889;48.352;11.392;2023-02-17T04:47:11;96963.63;;;8.36;51.98
78592;BME280;67889;48.352;11.392;2023-02-17T04:49:36;96921.19;;;8.08;52.21
78592;BME280;67889;48.352;11.392;2023-02-17T04:52:01;96971.97;;;8.47;52.05
78592;BME280;67889;48.352;11.392;2023-02-17T04:54:27;96942.59;;;8.14;52.02
78592;BME280;67889;48.352;11.392;2023-02-17T04:56:52;96914.94;;;7.89;53.02
78592;BME280;67889;48.352;11.392;2023-02-17T04:59:17;96954.09;;;8.26;52.91
78592;BME280;67889;48.352;11.392;2023-02-17T05:01:43;96902.44;;;7.84;52.54
78592;BME280;67889;48.352;11.392;2023-02-17T05:04:08;96982.94;;;8.34;52.93
78592;BME280;67889;48.352;11.392;2023-02-17T05:06:33;96929.38;;;8.12;52.42
78592;BME280;67889;48.352;11.392;2023-02-17T05:08:58;96911.69;;;7.99;52.77
78592;BME280;67889;48.352;11.392;2023-02-17T05:11:24;96970.06;;;8.47;52.78
78592;BME280;67889;48.352;11.392;2023-02-17T05:13:49;96954.38;;;8.21;53.66
78592;BME280;67889;48.352;11.392;2023-02-17T05:16:14;96921.22;;;7.93;53.57
78592;BME280;67889;48.352;11.392;2023-02-17T05:18:40;96920.78;;;7.91;53.68
78592;BME280;67889;48.352;11.392;2023-02-17T05:21:05;96943.22;;;8.07;53.92
78592;BME280;67889;48.352;11.392;2023-02-17T05:23:30;96961.19;;;8.15;54.65
78592;BME280;67889;48.352;11.392;2023-02-17T05:25:56;96929.16;;;8.01;54.68
78592;BME280;67889;48.352;11.392;2023-02-17T05:28:21;96970.69;;;8.25;54.78
78592;BME280;67889;48.352;11.392;2023-02-17T05:30:47;96960.28;;;8.27;54.81
78592;BME280;67889;48.352;11.392;2023-02-17T05:33:13;96889.00;;;7.88;54.85
78592;BME280;67889;48.352;11.392;2023-02-17T05:35:38;96946.31;;;8.25;55.15
78592;BME280;67889;48.352;11.392;2023-02-17T05:38:03;96956.44;;;8.44;55.02
78592;BME280;67889;48.352;11.392;2023-02-17T05:40:29;96942.81;;;8.24;55.54
78592;BME280;67889;48.352;11.392;2023-02-17T05:42:54;96923.00;;;8.20;55.48
78592;BME280;67889;48.352;11.392;2023-02-17T05:45:20;96941.69;;;8.25;55.49
78592;BME280;67889;48.352;11.392;2023-02-17T05:47:45;96934.53;;;8.33;55.59
78592;BME280;67889;48.352;11.392;2023-02-17T05:50:10;96961.38;;;8.57;55.28
78592;BME280;67889;48.352;11.392;2023-02-17T05:52:36;96898.19;;;8.18;54.98
78592;BME280;67889;48.352;11.392;2023-02-17T05:55:01;96898.88;;;8.15;55.17
78592;BME280;67889;48.352;11.392;2023-02-17T05:57:28;96973.78;;;8.58;55.79
78592;BME280;67889;48.352;11.392;2023-02-17T05:59:54;96965.72;;;8.62;55.09
78592;BME280;67889;48.352;11.392;2023-02-17T06:02:20;96955.53;;;8.55;57.58
78592;BME280;67889;48.352;11.392;2023-02-17T06:04:45;96956.09;;;8.29;60.66
78592;BME280;67889;48.352;11.392;2023-02-17T06:07:10;97004.34;;;8.39;61.80
78592;BME280;67889;48.352;11.392;2023-02-17T06:09:36;96989.59;;;8.05;64.04
78592;BME280;67889;48.352;11.392;2023-02-17T06:12:01;96988.81;;;7.89;65.14
78592;BME280;67889;48.352;11.392;2023-02-17T06:14:26;97007.06;;;7.92;65.83
78592;BME280;67889;48.352;11.392;2023-02-17T06:16:51;96984.88;;;7.71;64.35
78592;BME280;67889;48.352;11.392;2023-02-17T06:19:17;96996.34;;;7.80;65.22
78592;BME280;67889;48.352;11.392;2023-02-17T06:21:43;96984.53;;;7.88;64.31
78592;BME280;67889;48.352;11.392;2023-02-17T06:24:08;96977.63;;;7.91;64.72
78592;BME280;67889;48.352;11.392;2023-02-17T06:26:33;96966.47;;;7.76;64.96
78592;BME280;67889;48.352;11.392;2023-02-17T06:28:59;96969.78;;;7.70;64.07
78592;BME280;67889;48.352;11.392;2023-02-17T06:31:24;96986.38;;;7.84;64.53
78592;BME280;67889;48.352;11.392;2023-02-17T06:33:49;96979.81;;;7.85;64.22
78592;BME280;67889;48.352;11.392;2023-02-17T06:36:15;96980.63;;;7.86;64.24
78592;BME280;67889;48.352;11.392;2023-02-17T06:38:40;96966.28;;;8.01;64.15
78592;BME280;67889;48.352;11.392;2023-02-17T06:41:05;96964.97;;;7.79;63.75
78592;BME280;67889;48.352;11.392;2023-02-17T06:43:31;96994.84;;;7.98;63.10
78592;BME280;67889;48.352;11.392;2023-02-17T06:45:56;96996.25;;;7.92;63.71
78592;BME280;67889;48.352;11.392;2023-02-17T06:48:21;96999.81;;;7.96;63.63
78592;BME280;67889;48.352;11.392;2023-02-17T06:50:48;96973.44;;;7.78;63.72
78592;BME280;67889;48.352;11.392;2023-02-17T06:53:13;96993.69;;;8.15;62.32
78592;BME280;67889;48.352;11.392;2023-02-17T06:55:38;97002.97;;;8.14;62.94
78592;BME280;67889;48.352;11.392;2023-02-17T06:58:04;96977.34;;;8.12;62.04
78592;BME280;67889;48.352;11.392;2023-02-17T07:00:29;96997.00;;;8.40;61.48
78592;BME280;67889;48.352;11.392;2023-02-17T07:02:55;96995.94;;;8.45;60.93
78592;BME280;67889;48.352;11.392;2023-02-17T07:05:20;96992.25;;;8.53;60.35
78592;BME280;67889;48.352;11.392;2023-02-17T07:07:45;96997.75;;;8.56;60.26
78592;BME280;67889;48.352;11.392;2023-02-17T07:10:11;97001.53;;;8.71;60.26
78592;BME280;67889;48.352;11.392;2023-02-17T07:12:36;97000.72;;;8.86;59.15
78592;BME280;67889;48.352;11.392;2023-02-17T07:15:02;97010.56;;;8.94;58.83
78592;BME280;67889;48.352;11.392;2023-02-17T07:17:27;96989.44;;;8.84;58.48
78592;BME280;67889;48.352;11.392;2023-02-17T07:19:52;97020.28;;;9.15;57.90
78592;BME280;67889;48.352;11.392;2023-02-17T07:22:18;97017.78;;;9.25;57.33
78592;BME280;67889;48.352;11.392;2023-02-17T07:24:43;96998.56;;;9.15;58.02
78592;BME280;67889;48.352;11.392;2023-02-17T07:27:08;97016.28;;;9.28;57.16
78592;BME280;67889;48.352;11.392;2023-02-17T07:29:34;97002.69;;;9.28;56.58
78592;BME280;67889;48.352;11.392;2023-02-17T07:31:59;97017.69;;;9.41;56.85
78592;BME280;67889;48.352;11.392;2023-02-17T07:34:24;97018.09;;;9.43;56.12
78592;BME280;67889;48.352;11.392;2023-02-17T07:36:50;97010.53;;;9.52;55.88
78592;BME280;67889;48.352;11.392;2023-02-17T07:39:15;97021.94;;;9.61;55.14
78592;BME280;67889;48.352;11.392;2023-02-17T07:41:41;97001.88;;;9.47;55.53
78592;BME280;67889;48.352;11.392;2023-02-17T07:44:06;97019.28;;;9.65;55.16
78592;BME280;67889;48.352;11.392;2023-02-17T07:46:31;97017.09;;;9.51;55.39
78592;BME280;67889;48.352;11.392;2023-02-17T07:48:57;97008.75;;;9.41;55.76
78592;BME280;67889;48.352;11.392;2023-02-17T07:51:23;97028.63;;;9.67;54.85
78592;BME280;67889;48.352;11.392;2023-02-17T07:53:50;97032.66;;;9.54;56.44
78592;BME280;67889;48.352;11.392;2023-02-17T07:56:17;97036.25;;;9.39;56.71
78592;BME280;67889;48.352;11.392;2023-02-17T07:58:44;97015.63;;;9.34;56.42
78592;BME280;67889;48.352;11.392;2023-02-17T08:01:13;97031.22;;;9.60;55.72
78592;BME280;67889;48.352;11.392;2023-02-17T08:03:38;97037.38;;;9.57;55.79
78592;BME280;67889;48.352;11.392;2023-02-17T08:06:08;97038.28;;;9.65;55.50
78592;BME280;67889;48.352;11.392;2023-02-17T08:08:34;97036.78;;;9.67;56.02
78592;BME280;67889;48.352;11.392;2023-02-17T08:11:18;97034.19;;;9.75;55.08
78592;BME280;67889;48.352;11.392;2023-02-17T08:14:02;96994.06;;;9.64;55.70
78592;BME280;67889;48.352;11.392;2023-02-17T08:16:27;97038.00;;;9.93;54.87
78592;BME280;67889;48.352;11.392;2023-02-17T08:18:53;97038.63;;;10.06;55.30
78592;BME280;67889;48.352;11.392;2023-02-17T08:21:20;97029.69;;;10.05;55.89
78592;BME280;67889;48.352;11.392;2023-02-17T08:23:46;97015.31;;;10.05;56.18
78592;BME280;67889;48.352;11.392;2023-02-17T08:26:11;97018.38;;;10.03;55.64
78592;BME280;67889;48.352;11.392;2023-02-17T08:28:36;97018.28;;;9.96;55.78
78592;BME280;67889;48.352;11.392;2023-02-17T08:31:02;97026.97;;;10.05;55.48
78592;BME280;67889;48.352;11.392;2023-02-17T08:33:27;97028.72;;;10.17;55.67
78592;BME280;67889;48.352;11.392;2023-02-17T08:35:52;97030.78;;;10.23;55.21
78592;BME280;67889;48.352;11.392;2023-02-17T08:38:18;97038.88;;;10.20;55.17
78592;BME280;67889;48.352;11.392;2023-02-17T08:40:43;97044.66;;;10.18;55.29
78592;BME280;67889;48.352;11.392;2023-02-17T08:43:08;97046.00;;;10.28;54.80
78592;BME280;67889;48.352;11.392;2023-02-17T08:45:34;97059.94;;;10.26;54.66
78592;BME280;67889;48.352;11.392;2023-02-17T08:48:02;97058.38;;;10.25;56.16
78592;BME280;67889;48.352;11.392;2023-02-17T08:50:28;97053.53;;;10.15;57.39
78592;BME280;67889;48.352;11.392;2023-02-17T08:52:53;97033.66;;;10.11;57.77
78592;BME280;67889;48.352;11.392;2023-02-17T08:55:18;97053.78;;;10.29;58.46
78592;BME280;67889;48.352;11.392;2023-02-17T08:57:44;97057.13;;;10.42;58.05
78592;BME280;67889;48.352;11.392;2023-02-17T09:00:10;97062.25;;;10.47;57.99
78592;BME280;67889;48.352;11.392;2023-02-17T09:02:36;97058.44;;;10.52;57.88
78592;BME280;67889;48.352;11.392;2023-02-17T09:05:03;97041.09;;;10.37;58.29
78592;BME280;67889;48.352;11.392;2023-02-17T09:07:29;97061.00;;;10.68;57.16
78592;BME280;67889;48.352;11.392;2023-02-17T09:09:54;97050.75;;;10.84;56.01
78592;BME280;67889;48.352;11.392;2023-02-17T09:12:19;97067.00;;;11.07;55.93
78592;BME280;67889;48.352;11.392;2023-02-17T09:14:44;97034.88;;;10.89;55.46
78592;BME280;67889;48.352;11.392;2023-02-17T09:17:10;97051.63;;;10.91;55.69
78592;BME280;67889;48.352;11.392;2023-02-17T09:19:38;97057.03;;;10.88;56.35
78592;BME280;67889;48.352;11.392;2023-02-17T09:22:04;97065.88;;;10.81;56.64
78592;BME280;67889;48.352;11.392;2023-02-17T09:24:30;97064.66;;;10.79;56.81
78592;BME280;67889;48.352;11.392;2023-02-17T09:26:57;97058.44;;;10.78;56.95
78592;BME280;67889;48.352;11.392;2023-02-17T09:29:22;97052.16;;;10.74;57.24
78592;BME280;67889;48.352;11.392;2023-02-17T09:31:47;97059.94;;;11.02;55.99
78592;BME280;67889;48.352;11.392;2023-02-17T09:34:13;97056.25;;;11.17;55.95
78592;BME280;67889;48.352;11.392;2023-02-17T09:36:39;97062.00;;;11.42;54.77
78592;BME280;67889;48.352;11.392;2023-02-17T09:39:05;97066.03;;;11.55;54.53
78592;BME280;67889;48.352;11.392;2023-02-17T09:44:24;97044.41;;;11.70;53.40
78592;BME280;67889;48.352;11.392;2023-02-17T09:47:19;97054.41;;;12.40;51.17
78592;BME280;67889;48.352;11.392;2023-02-17T09:49:52;97057.59;;;13.11;49.39
78592;BME280;67889;48.352;11.392;2023-02-17T09:52:36;97056.00;;;14.04;46.46
78592;BME280;67889;48.352;11.392;2023-02-17T10:00:46;97040.31;;;13.79;46.41
78592;BME280;67889;48.352;11.392;2023-02-17T10:09:18;97045.06;;;14.22;44.80
78592;BME280;67889;48.352;11.392;2023-02-17T10:11:56;97022.03;;;14.55;43.94
78592;BME280;67889;48.352;11.392;2023-02-17T10:14:32;97034.13;;;14.75;43.24
78592;BME280;67889;48.352;11.392;2023-02-17T10:17:13;97045.47;;;14.70;43.47
78592;BME280;67889;48.352;11.392;2023-02-17T10:22:19;97043.53;;;14.52;43.21
78592;BME280;67889;48.352;11.392;2023-02-17T10:24:44;97038.81;;;14.74;43.27
78592;BME280;67889;48.352;11.392;2023-02-17T10:27:35;97032.44;;;15.20;41.61
78592;BME280;67889;48.352;11.392;2023-02-17T10:33:02;97042.19;;;16.64;38.12
78592;BME280;67889;48.352;11.392;2023-02-17T10:35:47;97013.25;;;16.52;38.31
78592;BME280;67889;48.352;11.392;2023-02-17T10:40:58;97029.03;;;17.23;37.07
78592;BME280;67889;48.352;11.392;2023-02-17T10:43:27;97023.41;;;17.34;36.36
78592;BME280;67889;48.352;11.392;2023-02-17T10:45:56;97028.50;;;17.35;36.24
78592;BME280;67889;48.352;11.392;2023-02-17T10:48:25;97041.47;;;17.01;37.06
78592;BME280;67889;48.352;11.392;2023-02-17T10:50:55;97011.19;;;17.04;36.82
78592;BME280;67889;48.352;11.392;2023-02-17T10:53:26;97010.78;;;16.68;38.35
78592;BME280;67889;48.352;11.392;2023-02-17T10:56:02;97010.16;;;16.91;38.25
78592;BME280;67889;48.352;11.392;2023-02-17T10:58:32;97018.59;;;16.73;38.40
78592;BME280;67889;48.352;11.392;2023-02-17T11:01:02;97005.00;;;16.07;40.21
78592;BME280;67889;48.352;11.392;2023-02-17T11:03:30;97026.78;;;15.70;41.44
78592;BME280;67889;48.352;11.392;2023-02-17T11:06:13;97013.94;;;15.45;42.33
78592;BME280;67889;48.352;11.392;2023-02-17T11:08:51;97014.69;;;15.53;42.48
78592;BME280;67889;48.352;11.392;2023-02-17T11:11:20;97012.38;;;15.41;43.89
78592;BME280;67889;48.352;11.392;2023-02-17T11:16:34;96997.78;;;15.76;42.44
78592;BME280;67889;48.352;11.392;2023-02-17T11:19:01;96972.78;;;15.60;42.63
78592;BME280;67889;48.352;11.392;2023-02-17T11:21:28;96998.28;;;15.42;43.09
78592;BME280;67889;48.352;11.392;2023-02-17T11:23:57;96982.16;;;14.46;45.38
78592;BME280;67889;48.352;11.392;2023-02-17T11:26:29;96996.59;;;14.40;45.37
78592;BME280;67889;48.352;11.392;2023-02-17T11:29:09;96991.91;;;14.40;46.04
78592;BME280;67889;48.352;11.392;2023-02-17T11:31:35;96991.13;;;14.58;46.00
78592;BME280;67889;48.352;11.392;2023-02-17T11:34:10;96971.59;;;14.41;46.02
78592;BME280;67889;48.352;11.392;2023-02-17T11:36:36;96961.81;;;14.58;46.21
78592;BME280;67889;48.352;11.392;2023-02-17T11:39:16;96980.97;;;14.55;46.60
78592;BME280;67889;48.352;11.392;2023-02-17T11:41:42;96959.88;;;14.44;46.61
78592;BME280;67889;48.352;11.392;2023-02-17T11:44:07;96982.53;;;14.27;47.87
78592;BME280;67889;48.352;11.392;2023-02-17T11:46:40;96970.81;;;13.98;48.17
78592;BME280;67889;48.352;11.392;2023-02-17T11:49:28;96955.59;;;13.79;49.21
78592;BME280;67889;48.352;11.392;2023-02-17T11:57:35;96959.50;;;14.25;48.32
78592;BME280;67889;48.352;11.392;2023-02-17T12:00:14;96943.84;;;14.39;47.88
78592;BME280;67889;48.352;11.392;2023-02-17T12:05:58;96943.03;;;14.67;48.39
78592;BME280;67889;48.352;11.392;2023-02-17T12:08:59;96951.59;;;14.76;47.54
78592;BME280;67889;48.352;11.392;2023-02-17T12:14:54;96935.47;;;14.96;45.49
78592;BME280;67889;48.352;11.392;2023-02-17T12:20:19;96934.72;;;14.92;45.71
78592;BME280;67889;48.352;11.392;2023-02-17T12:29:00;96945.03;;;14.45;47.54
78592;BME280;67889;48.352;11.392;2023-02-17T12:31:51;96937.16;;;14.65;47.67
78592;BME280;67889;48.352;11.392;2023-02-17T12:34:33;96941.78;;;14.86;47.55
78592;BME280;67889;48.352;11.392;2023-02-17T12:37:02;96938.22;;;14.96;47.59
78592;BME280;67889;48.352;11.392;2023-02-17T12:39:34;96940.50;;;15.15;46.51
78592;BME280;67889;48.352;11.392;2023-02-17T12:42:10;96932.72;;;15.03;46.77
78592;BME280;67889;48.352;11.392;2023-02-17T12:44:41;96940.56;;;14.98;46.53
78592;BME280;67889;48.352;11.392;2023-02-17T12:47:14;96925.19;;;15.22;45.99
78592;BME280;67889;48.352;11.392;2023-02-17T12:49:54;96933.09;;;15.09;45.60
78592;BME280;67889;48.352;11.392;2023-02-17T12:52:30;96935.84;;;15.05;46.18
78592;BME280;67889;48.352;11.392;2023-02-17T12:55:33;96930.88;;;14.75;46.50
78592;BME280;67889;48.352;11.392;2023-02-17T12:57:56;96923.50;;;14.40;47.96
78592;BME280;67889;48.352;11.392;2023-02-17T13:00:32;96936.03;;;14.31;48.34
78592;BME280;67889;48.352;11.392;2023-02-17T13:02:59;96927.84;;;14.06;49.37
78592;BME280;67889;48.352;11.392;2023-02-17T13:05:47;96933.31;;;13.74;50.55
78592;BME280;67889;48.352;11.392;2023-02-17T13:08:21;96929.81;;;13.73;50.41
78592;BME280;67889;48.352;11.392;2023-02-17T13:11:00;96923.56;;;13.76;51.08
78592;BME280;67889;48.352;11.392;2023-02-17T13:13:31;96927.06;;;13.77;50.67
78592;BME280;67889;48.352;11.392;2023-02-17T13:16:09;96941.91;;;13.65;51.53
78592;BME280;67889;48.352;11.392;2023-02-17T13:18:40;96930.19;;;13.61;51.71
78592;BME280;67889;48.352;11.392;2023-02-17T13:28:48;96938.41;;;14.07;51.06
78592;BME280;67889;48.352;11.392;2023-02-17T13:31:25;96937.63;;;13.89;52.03
78592;BME280;67889;48.352;11.392;2023-02-17T13:33:54;96955.19;;;13.63;52.30
78592;BME280;67889;48.352;11.392;2023-02-17T13:38:54;96950.03;;;13.33;53.75
78592;BME280;67889;48.352;11.392;2023-02-17T13:41:20;96948.44;;;13.21;54.18
78592;BME280;67889;48.352;11.392;2023-02-17T13:43:46;96938.69;;;13.17;54.35
78592;BME280;67889;48.352;11.392;2023-02-17T13:46:18;96951.56;;;13.16;55.77
78592;BME280;67889;48.352;11.392;2023-02-17T13:48:44;96941.38;;;13.13;55.00
78592;BME280;67889;48.352;11.392;2023-02-17T13:51:24;96954.69;;;13.18;55.17
78592;BME280;67889;48.352;11.392;2023-02-17T13:53:50;96950.72;;;13.05;55.55
78592;BME280;67889;48.352;11.392;2023-02-17T13:56:24;96939.09;;;13.19;55.41
78592;BME280;67889;48.352;11.392;2023-02-17T13:58:51;96943.00;;;13.21;54.48
78592;BME280;67889;48.352;11.392;2023-02-17T14:01:19;96955.16;;;13.45;54.02
78592;BME280;67889;48.352;11.392;2023-02-17T14:03:48;96951.88;;;13.08;54.97
78592;BME280;67889;48.352;11.392;2023-02-17T14:06:29;96961.72;;;13.23;54.25
78592;BME280;67889;48.352;11.392;2023-02-17T14:08:55;96958.16;;;13.15;54.60
78592;BME280;67889;48.352;11.392;2023-02-17T14:11:24;96961.22;;;13.03;54.71
78592;BME280;67889;48.352;11.392;2023-02-17T14:13:51;96963.13;;;12.92;56.28
78592;BME280;67889;48.352;11.392;2023-02-17T14:19:13;96956.81;;;12.77;55.46